Claude, Oregon
Current Conditions -  °F | °C
As of 6:53 AM on Thursday 18 Dec 2014 (Local Time) from KONO Reporting Station
Haze Haze  
Wind Chill:   Ceiling: 3600
Heat Index:   Visibility: 4mi
Dew Point:   Wind: 0mph
Humidity: 93%   Direction: NA
Pressure: 30.1"   Gusts: NA
Location:  44.0817°N, 117.014°W
Report Text: KONO 181353Z AUTO 00000KT 4SM BR BKN036 OVC044 02/01 A3010 RMK AO2 RAB1258E09 SLP209 P0000 T00220011
Loading
Personal Weather Stations






























Interactive Weather Map New forecast layout! Learn more

10-Day Weather Forecast

Advertisements
Track Severe Weather on mobile